sensor_id;sensor_type;location;lat;lon;timestamp;P1;durP1;ratioP1;P2;durP2;ratioP2
34783;SDS011;20998;51.388;7.032;2022-10-15T00:02:11;1.13;;;1.10;;
34783;SDS011;20998;51.388;7.032;2022-10-15T00:04:37;1.33;;;1.17;;
34783;SDS011;20998;51.388;7.032;2022-10-15T00:07:04;1.70;;;0.97;;
34783;SDS011;20998;51.388;7.032;2022-10-15T00:09:30;1.80;;;1.20;;
34783;SDS011;20998;51.388;7.032;2022-10-15T00:11:56;0.70;;;0.70;;
34783;SDS011;20998;51.388;7.032;2022-10-15T00:14:22;1.50;;;1.37;;
34783;SDS011;20998;51.388;7.032;2022-10-15T00:16:48;1.27;;;1.27;;
34783;SDS011;20998;51.388;7.032;2022-10-15T00:19:14;1.03;;;1.00;;
34783;SDS011;20998;51.388;7.032;2022-10-15T00:21:40;1.40;;;0.87;;
34783;SDS011;20998;51.388;7.032;2022-10-15T00:24:06;2.03;;;1.03;;
34783;SDS011;20998;51.388;7.032;2022-10-15T00:26:32;0.70;;;0.70;;
34783;SDS011;20998;51.388;7.032;2022-10-15T00:28:59;1.10;;;1.00;;
34783;SDS011;20998;51.388;7.032;2022-10-15T00:31:26;0.77;;;0.77;;
34783;SDS011;20998;51.388;7.032;2022-10-15T00:33:54;1.20;;;1.00;;
34783;SDS011;20998;51.388;7.032;2022-10-15T00:36:21;0.43;;;0.43;;
34783;SDS011;20998;51.388;7.032;2022-10-15T00:38:48;3.73;;;1.60;;
34783;SDS011;20998;51.388;7.032;2022-10-15T00:41:21;0.97;;;0.97;;
34783;SDS011;20998;51.388;7.032;2022-10-15T00:46:28;0.70;;;0.70;;
34783;SDS011;20998;51.388;7.032;2022-10-15T00:49:03;3.00;;;1.27;;
34783;SDS011;20998;51.388;7.032;2022-10-15T00:51:31;0.97;;;0.97;;
34783;SDS011;20998;51.388;7.032;2022-10-15T00:53:58;0.77;;;0.77;;
34783;SDS011;20998;51.388;7.032;2022-10-15T00:56:25;8.13;;;1.50;;
34783;SDS011;20998;51.388;7.032;2022-10-15T00:58:52;1.97;;;1.23;;
34783;SDS011;20998;51.388;7.032;2022-10-15T01:01:19;1.17;;;1.07;;
34783;SDS011;20998;51.388;7.032;2022-10-15T01:03:45;0.73;;;0.47;;
34783;SDS011;20998;51.388;7.032;2022-10-15T01:06:11;0.90;;;0.87;;
34783;SDS011;20998;51.388;7.032;2022-10-15T01:08:37;0.97;;;0.97;;
34783;SDS011;20998;51.388;7.032;2022-10-15T01:11:09;1.07;;;1.07;;
34783;SDS011;20998;51.388;7.032;2022-10-15T01:13:53;1.87;;;1.03;;
34783;SDS011;20998;51.388;7.032;2022-10-15T01:16:29;1.40;;;1.30;;
34783;SDS011;20998;51.388;7.032;2022-10-15T01:18:59;1.10;;;0.97;;
34783;SDS011;20998;51.388;7.032;2022-10-15T01:29:24;1.73;;;1.43;;
34783;SDS011;20998;51.388;7.032;2022-10-15T01:31:58;1.20;;;1.07;;
34783;SDS011;20998;51.388;7.032;2022-10-15T01:37:03;2.00;;;1.13;;
34783;SDS011;20998;51.388;7.032;2022-10-15T01:39:39;1.83;;;1.67;;
34783;SDS011;20998;51.388;7.032;2022-10-15T01:42:13;0.70;;;0.70;;
34783;SDS011;20998;51.388;7.032;2022-10-15T01:44:42;1.47;;;1.30;;
34783;SDS011;20998;51.388;7.032;2022-10-15T01:47:13;2.97;;;1.47;;
34783;SDS011;20998;51.388;7.032;2022-10-15T01:49:41;2.67;;;1.93;;
34783;SDS011;20998;51.388;7.032;2022-10-15T01:52:09;0.80;;;0.80;;
34783;SDS011;20998;51.388;7.032;2022-10-15T01:54:37;2.40;;;1.63;;
34783;SDS011;20998;51.388;7.032;2022-10-15T01:57:04;0.60;;;0.60;;
34783;SDS011;20998;51.388;7.032;2022-10-15T01:59:31;1.37;;;1.27;;
34783;SDS011;20998;51.388;7.032;2022-10-15T02:01:58;1.17;;;1.07;;
34783;SDS011;20998;51.388;7.032;2022-10-15T02:04:25;1.20;;;0.97;;
34783;SDS011;20998;51.388;7.032;2022-10-15T02:09:39;0.60;;;0.60;;
34783;SDS011;20998;51.388;7.032;2022-10-15T02:12:08;1.63;;;1.53;;
34783;SDS011;20998;51.388;7.032;2022-10-15T02:14:37;1.03;;;0.90;;
34783;SDS011;20998;51.388;7.032;2022-10-15T02:17:07;2.90;;;1.33;;
34783;SDS011;20998;51.388;7.032;2022-10-15T02:22:20;1.23;;;1.13;;
34783;SDS011;20998;51.388;7.032;2022-10-15T02:24:52;1.40;;;1.27;;
34783;SDS011;20998;51.388;7.032;2022-10-15T02:27:20;1.40;;;1.37;;
34783;SDS011;20998;51.388;7.032;2022-10-15T02:29:47;1.53;;;1.43;;
34783;SDS011;20998;51.388;7.032;2022-10-15T02:32:14;0.47;;;0.47;;
34783;SDS011;20998;51.388;7.032;2022-10-15T02:34:41;2.33;;;1.50;;
34783;SDS011;20998;51.388;7.032;2022-10-15T02:37:09;1.17;;;1.10;;
34783;SDS011;20998;51.388;7.032;2022-10-15T02:39:35;2.77;;;2.53;;
34783;SDS011;20998;51.388;7.032;2022-10-15T02:42:01;1.03;;;1.00;;
34783;SDS011;20998;51.388;7.032;2022-10-15T02:44:28;3.20;;;1.43;;
34783;SDS011;20998;51.388;7.032;2022-10-15T02:46:54;1.63;;;1.40;;
34783;SDS011;20998;51.388;7.032;2022-10-15T02:49:20;1.07;;;1.03;;
34783;SDS011;20998;51.388;7.032;2022-10-15T02:51:46;4.30;;;2.20;;
34783;SDS011;20998;51.388;7.032;2022-10-15T02:54:12;2.30;;;1.53;;
34783;SDS011;20998;51.388;7.032;2022-10-15T02:56:38;1.70;;;1.60;;
34783;SDS011;20998;51.388;7.032;2022-10-15T02:59:05;1.17;;;1.10;;
34783;SDS011;20998;51.388;7.032;2022-10-15T03:01:31;1.50;;;1.40;;
34783;SDS011;20998;51.388;7.032;2022-10-15T03:03:58;2.10;;;1.03;;
34783;SDS011;20998;51.388;7.032;2022-10-15T03:06:24;2.47;;;1.70;;
34783;SDS011;20998;51.388;7.032;2022-10-15T03:08:50;2.33;;;1.70;;
34783;SDS011;20998;51.388;7.032;2022-10-15T03:11:16;1.47;;;1.27;;
34783;SDS011;20998;51.388;7.032;2022-10-15T03:13:42;1.50;;;1.40;;
34783;SDS011;20998;51.388;7.032;2022-10-15T03:16:08;2.37;;;2.17;;
34783;SDS011;20998;51.388;7.032;2022-10-15T03:18:35;3.63;;;1.40;;
34783;SDS011;20998;51.388;7.032;2022-10-15T03:21:01;2.50;;;1.53;;
34783;SDS011;20998;51.388;7.032;2022-10-15T03:23:28;2.17;;;1.70;;
34783;SDS011;20998;51.388;7.032;2022-10-15T03:25:54;1.70;;;1.33;;
34783;SDS011;20998;51.388;7.032;2022-10-15T03:28:20;5.30;;;2.53;;
34783;SDS011;20998;51.388;7.032;2022-10-15T03:30:47;2.37;;;1.93;;
34783;SDS011;20998;51.388;7.032;2022-10-15T03:33:13;2.20;;;2.00;;
34783;SDS011;20998;51.388;7.032;2022-10-15T03:35:39;6.43;;;2.60;;
34783;SDS011;20998;51.388;7.032;2022-10-15T03:38:05;1.47;;;1.37;;
34783;SDS011;20998;51.388;7.032;2022-10-15T03:40:32;1.23;;;1.13;;
34783;SDS011;20998;51.388;7.032;2022-10-15T03:42:58;3.50;;;2.57;;
34783;SDS011;20998;51.388;7.032;2022-10-15T03:45:24;3.77;;;2.30;;
34783;SDS011;20998;51.388;7.032;2022-10-15T03:47:50;2.27;;;1.60;;
34783;SDS011;20998;51.388;7.032;2022-10-15T03:50:17;2.00;;;1.70;;
34783;SDS011;20998;51.388;7.032;2022-10-15T03:52:43;1.47;;;1.30;;
34783;SDS011;20998;51.388;7.032;2022-10-15T03:55:09;2.07;;;1.87;;
34783;SDS011;20998;51.388;7.032;2022-10-15T03:57:35;2.10;;;1.93;;
34783;SDS011;20998;51.388;7.032;2022-10-15T04:00:02;1.63;;;1.50;;
34783;SDS011;20998;51.388;7.032;2022-10-15T04:02:29;2.60;;;1.70;;
34783;SDS011;20998;51.388;7.032;2022-10-15T04:04:56;2.57;;;2.13;;
34783;SDS011;20998;51.388;7.032;2022-10-15T04:07:22;4.03;;;2.00;;
34783;SDS011;20998;51.388;7.032;2022-10-15T04:09:48;1.30;;;1.20;;
34783;SDS011;20998;51.388;7.032;2022-10-15T04:12:15;3.67;;;2.23;;
34783;SDS011;20998;51.388;7.032;2022-10-15T04:14:41;7.67;;;2.73;;
34783;SDS011;20998;51.388;7.032;2022-10-15T04:17:07;2.87;;;1.83;;
34783;SDS011;20998;51.388;7.032;2022-10-15T04:19:33;2.20;;;2.03;;
34783;SDS011;20998;51.388;7.032;2022-10-15T04:21:59;1.87;;;1.47;;
34783;SDS011;20998;51.388;7.032;2022-10-15T04:24:25;1.63;;;1.53;;
34783;SDS011;20998;51.388;7.032;2022-10-15T04:26:52;1.70;;;1.53;;
34783;SDS011;20998;51.388;7.032;2022-10-15T04:29:18;6.30;;;1.97;;
34783;SDS011;20998;51.388;7.032;2022-10-15T04:31:44;3.00;;;1.87;;
34783;SDS011;20998;51.388;7.032;2022-10-15T04:34:10;1.50;;;1.37;;
34783;SDS011;20998;51.388;7.032;2022-10-15T04:36:36;4.63;;;1.93;;
34783;SDS011;20998;51.388;7.032;2022-10-15T04:39:02;2.20;;;1.47;;
34783;SDS011;20998;51.388;7.032;2022-10-15T04:41:29;2.93;;;2.30;;
34783;SDS011;20998;51.388;7.032;2022-10-15T04:43:55;1.53;;;1.43;;
34783;SDS011;20998;51.388;7.032;2022-10-15T04:46:21;4.03;;;2.47;;
34783;SDS011;20998;51.388;7.032;2022-10-15T04:48:47;2.57;;;2.13;;
34783;SDS011;20998;51.388;7.032;2022-10-15T04:51:14;4.43;;;2.73;;
34783;SDS011;20998;51.388;7.032;2022-10-15T04:53:40;1.83;;;1.73;;
34783;SDS011;20998;51.388;7.032;2022-10-15T04:56:07;4.47;;;1.73;;
34783;SDS011;20998;51.388;7.032;2022-10-15T04:58:34;2.87;;;1.37;;
34783;SDS011;20998;51.388;7.032;2022-10-15T05:01:03;7.13;;;1.67;;
34783;SDS011;20998;51.388;7.032;2022-10-15T05:03:30;2.60;;;1.97;;
34783;SDS011;20998;51.388;7.032;2022-10-15T05:08:51;1.10;;;1.00;;
34783;SDS011;20998;51.388;7.032;2022-10-15T05:11:21;3.80;;;2.60;;
34783;SDS011;20998;51.388;7.032;2022-10-15T05:13:48;6.70;;;2.27;;
34783;SDS011;20998;51.388;7.032;2022-10-15T05:16:15;1.33;;;1.30;;
34783;SDS011;20998;51.388;7.032;2022-10-15T05:18:42;2.93;;;1.43;;
34783;SDS011;20998;51.388;7.032;2022-10-15T05:21:08;2.33;;;1.83;;
34783;SDS011;20998;51.388;7.032;2022-10-15T05:23:34;1.53;;;1.23;;
34783;SDS011;20998;51.388;7.032;2022-10-15T05:26:05;2.27;;;1.03;;
34783;SDS011;20998;51.388;7.032;2022-10-15T05:28:31;1.43;;;1.20;;
34783;SDS011;20998;51.388;7.032;2022-10-15T05:31:04;2.00;;;1.90;;
34783;SDS011;20998;51.388;7.032;2022-10-15T05:33:30;2.10;;;1.70;;
34783;SDS011;20998;51.388;7.032;2022-10-15T05:35:56;1.20;;;1.17;;
34783;SDS011;20998;51.388;7.032;2022-10-15T05:38:22;2.70;;;1.70;;
34783;SDS011;20998;51.388;7.032;2022-10-15T05:40:48;1.70;;;1.23;;
34783;SDS011;20998;51.388;7.032;2022-10-15T05:43:14;1.90;;;1.80;;
34783;SDS011;20998;51.388;7.032;2022-10-15T05:45:40;2.80;;;2.30;;
34783;SDS011;20998;51.388;7.032;2022-10-15T05:48:06;2.87;;;1.97;;
34783;SDS011;20998;51.388;7.032;2022-10-15T05:50:32;2.23;;;2.07;;
34783;SDS011;20998;51.388;7.032;2022-10-15T05:52:58;3.90;;;1.37;;
34783;SDS011;20998;51.388;7.032;2022-10-15T05:55:24;3.77;;;2.40;;
34783;SDS011;20998;51.388;7.032;2022-10-15T05:57:50;1.47;;;1.37;;
34783;SDS011;20998;51.388;7.032;2022-10-15T06:00:16;1.23;;;1.13;;
34783;SDS011;20998;51.388;7.032;2022-10-15T06:02:42;3.93;;;2.03;;
34783;SDS011;20998;51.388;7.032;2022-10-15T06:05:08;7.30;;;1.77;;
34783;SDS011;20998;51.388;7.032;2022-10-15T06:07:34;4.10;;;2.80;;
34783;SDS011;20998;51.388;7.032;2022-10-15T06:10:00;1.60;;;1.50;;
34783;SDS011;20998;51.388;7.032;2022-10-15T06:12:26;1.93;;;1.60;;
34783;SDS011;20998;51.388;7.032;2022-10-15T06:14:52;1.60;;;1.50;;
34783;SDS011;20998;51.388;7.032;2022-10-15T06:17:18;1.93;;;1.83;;
34783;SDS011;20998;51.388;7.032;2022-10-15T06:19:44;2.13;;;1.50;;
34783;SDS011;20998;51.388;7.032;2022-10-15T06:22:10;1.27;;;1.17;;
34783;SDS011;20998;51.388;7.032;2022-10-15T06:24:36;2.43;;;1.77;;
34783;SDS011;20998;51.388;7.032;2022-10-15T06:27:02;1.37;;;1.27;;
34783;SDS011;20998;51.388;7.032;2022-10-15T06:29:28;2.10;;;1.40;;
34783;SDS011;20998;51.388;7.032;2022-10-15T06:31:54;1.70;;;1.60;;
34783;SDS011;20998;51.388;7.032;2022-10-15T06:34:20;10.17;;;3.30;;
34783;SDS011;20998;51.388;7.032;2022-10-15T06:36:46;2.40;;;2.20;;
34783;SDS011;20998;51.388;7.032;2022-10-15T06:39:12;3.13;;;2.37;;
34783;SDS011;20998;51.388;7.032;2022-10-15T06:41:38;1.67;;;1.57;;
34783;SDS011;20998;51.388;7.032;2022-10-15T06:44:04;21.50;;;2.67;;
34783;SDS011;20998;51.388;7.032;2022-10-15T06:46:30;2.97;;;2.37;;
34783;SDS011;20998;51.388;7.032;2022-10-15T06:48:56;2.93;;;1.40;;
34783;SDS011;20998;51.388;7.032;2022-10-15T06:51:22;4.23;;;1.87;;
34783;SDS011;20998;51.388;7.032;2022-10-15T06:53:48;2.60;;;2.17;;
34783;SDS011;20998;51.388;7.032;2022-10-15T06:56:14;4.70;;;3.07;;
34783;SDS011;20998;51.388;7.032;2022-10-15T06:58:40;2.20;;;2.10;;
34783;SDS011;20998;51.388;7.032;2022-10-15T07:01:07;8.10;;;2.63;;
34783;SDS011;20998;51.388;7.032;2022-10-15T07:03:34;3.57;;;2.50;;
34783;SDS011;20998;51.388;7.032;2022-10-15T07:06:03;3.23;;;2.17;;
34783;SDS011;20998;51.388;7.032;2022-10-15T07:08:29;1.73;;;1.27;;
34783;SDS011;20998;51.388;7.032;2022-10-15T07:10:55;1.30;;;1.23;;
34783;SDS011;20998;51.388;7.032;2022-10-15T07:13:21;1.93;;;1.80;;
34783;SDS011;20998;51.388;7.032;2022-10-15T07:15:47;1.67;;;1.57;;
34783;SDS011;20998;51.388;7.032;2022-10-15T07:18:17;5.33;;;2.60;;
34783;SDS011;20998;51.388;7.032;2022-10-15T07:20:43;2.30;;;1.70;;
34783;SDS011;20998;51.388;7.032;2022-10-15T07:23:09;5.63;;;2.33;;
34783;SDS011;20998;51.388;7.032;2022-10-15T07:25:35;2.40;;;1.70;;
34783;SDS011;20998;51.388;7.032;2022-10-15T07:28:02;3.70;;;2.30;;
34783;SDS011;20998;51.388;7.032;2022-10-15T07:30:28;2.67;;;2.47;;
34783;SDS011;20998;51.388;7.032;2022-10-15T07:32:57;1.93;;;1.80;;
34783;SDS011;20998;51.388;7.032;2022-10-15T07:35:24;2.17;;;1.97;;
34783;SDS011;20998;51.388;7.032;2022-10-15T07:37:50;2.50;;;1.97;;
34783;SDS011;20998;51.388;7.032;2022-10-15T07:40:16;5.20;;;3.00;;
34783;SDS011;20998;51.388;7.032;2022-10-15T07:42:43;3.20;;;1.60;;
34783;SDS011;20998;51.388;7.032;2022-10-15T07:45:09;6.13;;;2.90;;
34783;SDS011;20998;51.388;7.032;2022-10-15T07:47:35;1.40;;;1.30;;
34783;SDS011;20998;51.388;7.032;2022-10-15T07:50:01;11.73;;;2.97;;
34783;SDS011;20998;51.388;7.032;2022-10-15T07:52:27;2.43;;;2.10;;
34783;SDS011;20998;51.388;7.032;2022-10-15T07:54:53;2.10;;;1.70;;
34783;SDS011;20998;51.388;7.032;2022-10-15T07:57:19;3.93;;;3.13;;
34783;SDS011;20998;51.388;7.032;2022-10-15T07:59:45;1.50;;;1.40;;
34783;SDS011;20998;51.388;7.032;2022-10-15T08:02:17;2.17;;;1.97;;
34783;SDS011;20998;51.388;7.032;2022-10-15T08:04:44;2.83;;;2.60;;
34783;SDS011;20998;51.388;7.032;2022-10-15T08:07:10;2.93;;;2.23;;
34783;SDS011;20998;51.388;7.032;2022-10-15T08:09:36;2.37;;;2.17;;
34783;SDS011;20998;51.388;7.032;2022-10-15T08:12:03;2.83;;;1.50;;
34783;SDS011;20998;51.388;7.032;2022-10-15T08:14:30;3.47;;;2.10;;
34783;SDS011;20998;51.388;7.032;2022-10-15T08:16:56;5.33;;;2.30;;
34783;SDS011;20998;51.388;7.032;2022-10-15T08:19:22;2.93;;;1.90;;
34783;SDS011;20998;51.388;7.032;2022-10-15T08:21:48;1.30;;;1.13;;
34783;SDS011;20998;51.388;7.032;2022-10-15T08:24:14;3.87;;;2.13;;
34783;SDS011;20998;51.388;7.032;2022-10-15T08:26:40;0.93;;;0.83;;
34783;SDS011;20998;51.388;7.032;2022-10-15T08:29:06;2.00;;;1.43;;
34783;SDS011;20998;51.388;7.032;2022-10-15T08:31:32;5.40;;;1.10;;
34783;SDS011;20998;51.388;7.032;2022-10-15T08:33:59;1.73;;;1.47;;
34783;SDS011;20998;51.388;7.032;2022-10-15T08:36:26;1.53;;;1.10;;
34783;SDS011;20998;51.388;7.032;2022-10-15T08:38:52;0.90;;;0.90;;
34783;SDS011;20998;51.388;7.032;2022-10-15T08:43:47;0.77;;;0.67;;
34783;SDS011;20998;51.388;7.032;2022-10-15T08:46:21;1.47;;;1.37;;
34783;SDS011;20998;51.388;7.032;2022-10-15T08:48:48;1.10;;;1.00;;
34783;SDS011;20998;51.388;7.032;2022-10-15T08:51:18;1.43;;;0.73;;
34783;SDS011;20998;51.388;7.032;2022-10-15T08:53:50;1.10;;;0.97;;
34783;SDS011;20998;51.388;7.032;2022-10-15T08:56:18;0.90;;;0.90;;
34783;SDS011;20998;51.388;7.032;2022-10-15T09:01:14;1.17;;;0.63;;
34783;SDS011;20998;51.388;7.032;2022-10-15T09:03:45;1.80;;;0.97;;
34783;SDS011;20998;51.388;7.032;2022-10-15T09:11:34;0.77;;;0.77;;
34783;SDS011;20998;51.388;7.032;2022-10-15T09:14:03;0.33;;;0.33;;
34783;SDS011;20998;51.388;7.032;2022-10-15T09:16:31;1.23;;;0.30;;
34783;SDS011;20998;51.388;7.032;2022-10-15T09:19:01;0.20;;;0.20;;
34783;SDS011;20998;51.388;7.032;2022-10-15T09:21:28;8.20;;;0.60;;
34783;SDS011;20998;51.388;7.032;2022-10-15T09:23:56;1.60;;;0.97;;
34783;SDS011;20998;51.388;7.032;2022-10-15T09:26:28;0.47;;;0.47;;
34783;SDS011;20998;51.388;7.032;2022-10-15T09:29:38;0.30;;;0.30;;
34783;SDS011;20998;51.388;7.032;2022-10-15T09:31:55;0.40;;;0.40;;
34783;SDS011;20998;51.388;7.032;2022-10-15T09:34:23;0.67;;;0.67;;
34783;SDS011;20998;51.388;7.032;2022-10-15T09:36:51;0.20;;;0.20;;
34783;SDS011;20998;51.388;7.032;2022-10-15T09:39:39;0.30;;;0.30;;
34783;SDS011;20998;51.388;7.032;2022-10-15T09:42:18;0.20;;;0.20;;
34783;SDS011;20998;51.388;7.032;2022-10-15T09:44:48;0.70;;;0.70;;
34783;SDS011;20998;51.388;7.032;2022-10-15T09:47:22;0.20;;;0.20;;
34783;SDS011;20998;51.388;7.032;2022-10-15T09:49:48;0.27;;;0.27;;
34783;SDS011;20998;51.388;7.032;2022-10-15T09:52:25;0.33;;;0.33;;
34783;SDS011;20998;51.388;7.032;2022-10-15T09:55:02;0.20;;;0.20;;
34783;SDS011;20998;51.388;7.032;2022-10-15T09:57:32;0.20;;;0.20;;
34783;SDS011;20998;51.388;7.032;2022-10-15T10:00:00;0.30;;;0.30;;
34783;SDS011;20998;51.388;7.032;2022-10-15T10:02:27;0.30;;;0.30;;
34783;SDS011;20998;51.388;7.032;2022-10-15T10:04:53;0.30;;;0.30;;
34783;SDS011;20998;51.388;7.032;2022-10-15T10:07:29;0.30;;;0.30;;
34783;SDS011;20998;51.388;7.032;2022-10-15T10:09:57;0.20;;;0.20;;
34783;SDS011;20998;51.388;7.032;2022-10-15T10:12:28;0.70;;;0.57;;
34783;SDS011;20998;51.388;7.032;2022-10-15T10:15:24;0.20;;;0.20;;
34783;SDS011;20998;51.388;7.032;2022-10-15T10:17:52;0.60;;;0.60;;
34783;SDS011;20998;51.388;7.032;2022-10-15T10:20:19;0.20;;;0.20;;
34783;SDS011;20998;51.388;7.032;2022-10-15T10:22:46;0.20;;;0.20;;
34783;SDS011;20998;51.388;7.032;2022-10-15T10:30:20;0.30;;;0.30;;
34783;SDS011;20998;51.388;7.032;2022-10-15T10:32:46;0.40;;;0.40;;
34783;SDS011;20998;51.388;7.032;2022-10-15T10:35:19;0.30;;;0.30;;
34783;SDS011;20998;51.388;7.032;2022-10-15T10:37:45;0.40;;;0.40;;
34783;SDS011;20998;51.388;7.032;2022-10-15T10:40:28;0.23;;;0.23;;
34783;SDS011;20998;51.388;7.032;2022-10-15T10:45:40;0.20;;;0.20;;
34783;SDS011;20998;51.388;7.032;2022-10-15T10:48:18;0.20;;;0.20;;
34783;SDS011;20998;51.388;7.032;2022-10-15T10:50:44;0.20;;;0.20;;
34783;SDS011;20998;51.388;7.032;2022-10-15T10:56:03;0.20;;;0.20;;
34783;SDS011;20998;51.388;7.032;2022-10-15T10:58:32;0.30;;;0.30;;
34783;SDS011;20998;51.388;7.032;2022-10-15T11:00:58;0.30;;;0.30;;
34783;SDS011;20998;51.388;7.032;2022-10-15T11:03:41;0.20;;;0.20;;
34783;SDS011;20998;51.388;7.032;2022-10-15T11:06:13;0.30;;;0.30;;
34783;SDS011;20998;51.388;7.032;2022-10-15T11:08:45;0.37;;;0.37;;
34783;SDS011;20998;51.388;7.032;2022-10-15T11:16:30;0.20;;;0.20;;
34783;SDS011;20998;51.388;7.032;2022-10-15T11:19:08;0.30;;;0.30;;
34783;SDS011;20998;51.388;7.032;2022-10-15T11:21:41;0.20;;;0.20;;
34783;SDS011;20998;51.388;7.032;2022-10-15T11:32:00;0.30;;;0.30;;
34783;SDS011;20998;51.388;7.032;2022-10-15T11:47:28;0.20;;;0.20;;
34783;SDS011;20998;51.388;7.032;2022-10-15T11:50:04;0.30;;;0.30;;
34783;SDS011;20998;51.388;7.032;2022-10-15T11:57:30;0.40;;;0.40;;
34783;SDS011;20998;51.388;7.032;2022-10-15T11:59:59;0.40;;;0.40;;
34783;SDS011;20998;51.388;7.032;2022-10-15T12:02:36;0.30;;;0.30;;
34783;SDS011;20998;51.388;7.032;2022-10-15T12:05:06;0.30;;;0.30;;
34783;SDS011;20998;51.388;7.032;2022-10-15T12:07:36;0.23;;;0.23;;
34783;SDS011;20998;51.388;7.032;2022-10-15T12:12:56;0.20;;;0.20;;
34783;SDS011;20998;51.388;7.032;2022-10-15T12:20:39;0.30;;;0.30;;
34783;SDS011;20998;51.388;7.032;2022-10-15T12:23:17;0.20;;;0.20;;
34783;SDS011;20998;51.388;7.032;2022-10-15T12:25:46;0.27;;;0.27;;
34783;SDS011;20998;51.388;7.032;2022-10-15T12:30:42;0.40;;;0.40;;
34783;SDS011;20998;51.388;7.032;2022-10-15T12:38:41;0.20;;;0.20;;
34783;SDS011;20998;51.388;7.032;2022-10-15T12:41:16;0.30;;;0.30;;
34783;SDS011;20998;51.388;7.032;2022-10-15T12:43:43;0.30;;;0.30;;
34783;SDS011;20998;51.388;7.032;2022-10-15T12:46:10;0.20;;;0.20;;
34783;SDS011;20998;51.388;7.032;2022-10-15T12:48:38;0.20;;;0.20;;
34783;SDS011;20998;51.388;7.032;2022-10-15T12:53:46;0.20;;;0.20;;
34783;SDS011;20998;51.388;7.032;2022-10-15T12:56:55;0.33;;;0.33;;
34783;SDS011;20998;51.388;7.032;2022-10-15T12:59:04;0.53;;;0.53;;
34783;SDS011;20998;51.388;7.032;2022-10-15T13:01:50;0.80;;;0.53;;
34783;SDS011;20998;51.388;7.032;2022-10-15T13:04:16;0.30;;;0.30;;
34783;SDS011;20998;51.388;7.032;2022-10-15T13:06:43;0.30;;;0.30;;
34783;SDS011;20998;51.388;7.032;2022-10-15T13:12:05;0.40;;;0.40;;
34783;SDS011;20998;51.388;7.032;2022-10-15T13:14:37;0.30;;;0.30;;
34783;SDS011;20998;51.388;7.032;2022-10-15T13:17:13;0.60;;;0.60;;
34783;SDS011;20998;51.388;7.032;2022-10-15T13:19:45;0.20;;;0.20;;
34783;SDS011;20998;51.388;7.032;2022-10-15T13:22:21;0.20;;;0.20;;
34783;SDS011;20998;51.388;7.032;2022-10-15T13:24:48;1.07;;;0.63;;
34783;SDS011;20998;51.388;7.032;2022-10-15T13:27:15;0.20;;;0.20;;
34783;SDS011;20998;51.388;7.032;2022-10-15T13:29:51;0.20;;;0.20;;
34783;SDS011;20998;51.388;7.032;2022-10-15T13:32:17;0.30;;;0.30;;
34783;SDS011;20998;51.388;7.032;2022-10-15T13:34:44;0.57;;;0.57;;
34783;SDS011;20998;51.388;7.032;2022-10-15T13:37:12;0.40;;;0.40;;
34783;SDS011;20998;51.388;7.032;2022-10-15T13:39:40;0.23;;;0.23;;
34783;SDS011;20998;51.388;7.032;2022-10-15T13:44:32;0.20;;;0.20;;
34783;SDS011;20998;51.388;7.032;2022-10-15T13:46:58;0.30;;;0.30;;
34783;SDS011;20998;51.388;7.032;2022-10-15T13:49:24;0.20;;;0.20;;
34783;SDS011;20998;51.388;7.032;2022-10-15T13:51:51;0.40;;;0.40;;
34783;SDS011;20998;51.388;7.032;2022-10-15T13:54:21;0.30;;;0.30;;
34783;SDS011;20998;51.388;7.032;2022-10-15T13:56:51;0.20;;;0.20;;
34783;SDS011;20998;51.388;7.032;2022-10-15T13:59:17;0.20;;;0.20;;
34783;SDS011;20998;51.388;7.032;2022-10-15T14:01:45;0.20;;;0.20;;
34783;SDS011;20998;51.388;7.032;2022-10-15T14:04:16;0.30;;;0.30;;
34783;SDS011;20998;51.388;7.032;2022-10-15T14:06:47;0.20;;;0.20;;
34783;SDS011;20998;51.388;7.032;2022-10-15T14:09:18;0.20;;;0.20;;
34783;SDS011;20998;51.388;7.032;2022-10-15T14:11:44;0.30;;;0.30;;
34783;SDS011;20998;51.388;7.032;2022-10-15T14:16:55;0.53;;;0.53;;
34783;SDS011;20998;51.388;7.032;2022-10-15T14:19:22;0.20;;;0.20;;
34783;SDS011;20998;51.388;7.032;2022-10-15T14:21:54;0.30;;;0.30;;
34783;SDS011;20998;51.388;7.032;2022-10-15T14:24:21;0.20;;;0.20;;
34783;SDS011;20998;51.388;7.032;2022-10-15T14:26:48;0.30;;;0.30;;
34783;SDS011;20998;51.388;7.032;2022-10-15T14:31:47;0.40;;;0.30;;
34783;SDS011;20998;51.388;7.032;2022-10-15T14:40:02;0.30;;;0.30;;
34783;SDS011;20998;51.388;7.032;2022-10-15T14:42:30;0.20;;;0.20;;
34783;SDS011;20998;51.388;7.032;2022-10-15T14:44:56;0.20;;;0.20;;
34783;SDS011;20998;51.388;7.032;2022-10-15T14:47:35;0.40;;;0.33;;
34783;SDS011;20998;51.388;7.032;2022-10-15T14:50:01;0.57;;;0.23;;
34783;SDS011;20998;51.388;7.032;2022-10-15T14:52:28;0.20;;;0.20;;
34783;SDS011;20998;51.388;7.032;2022-10-15T14:55:05;0.30;;;0.30;;
34783;SDS011;20998;51.388;7.032;2022-10-15T14:57:37;0.50;;;0.40;;
34783;SDS011;20998;51.388;7.032;2022-10-15T15:00:05;0.20;;;0.20;;
34783;SDS011;20998;51.388;7.032;2022-10-15T15:02:35;0.47;;;0.47;;
34783;SDS011;20998;51.388;7.032;2022-10-15T15:07:36;0.47;;;0.47;;
34783;SDS011;20998;51.388;7.032;2022-10-15T15:10:03;0.30;;;0.30;;
34783;SDS011;20998;51.388;7.032;2022-10-15T15:12:29;0.20;;;0.20;;
34783;SDS011;20998;51.388;7.032;2022-10-15T15:14:55;0.30;;;0.30;;
34783;SDS011;20998;51.388;7.032;2022-10-15T15:17:25;0.23;;;0.23;;
34783;SDS011;20998;51.388;7.032;2022-10-15T15:19:53;0.20;;;0.20;;
34783;SDS011;20998;51.388;7.032;2022-10-15T15:22:26;0.30;;;0.30;;
34783;SDS011;20998;51.388;7.032;2022-10-15T15:24:53;0.20;;;0.20;;
34783;SDS011;20998;51.388;7.032;2022-10-15T15:27:23;0.20;;;0.20;;
34783;SDS011;20998;51.388;7.032;2022-10-15T15:29:49;0.20;;;0.20;;
34783;SDS011;20998;51.388;7.032;2022-10-15T15:32:16;0.30;;;0.30;;
34783;SDS011;20998;51.388;7.032;2022-10-15T15:34:42;0.27;;;0.27;;
34783;SDS011;20998;51.388;7.032;2022-10-15T15:37:21;0.20;;;0.20;;
34783;SDS011;20998;51.388;7.032;2022-10-15T15:39:47;0.37;;;0.37;;
34783;SDS011;20998;51.388;7.032;2022-10-15T15:42:15;0.20;;;0.20;;
34783;SDS011;20998;51.388;7.032;2022-10-15T15:44:41;0.63;;;0.40;;
34783;SDS011;20998;51.388;7.032;2022-10-15T15:47:07;0.30;;;0.30;;
34783;SDS011;20998;51.388;7.032;2022-10-15T15:49:34;0.20;;;0.20;;
34783;SDS011;20998;51.388;7.032;2022-10-15T15:52:00;0.30;;;0.30;;
34783;SDS011;20998;51.388;7.032;2022-10-15T15:54:26;0.20;;;0.20;;
34783;SDS011;20998;51.388;7.032;2022-10-15T15:56:52;0.20;;;0.20;;
34783;SDS011;20998;51.388;7.032;2022-10-15T15:59:18;0.40;;;0.40;;
34783;SDS011;20998;51.388;7.032;2022-10-15T16:01:44;0.20;;;0.20;;
34783;SDS011;20998;51.388;7.032;2022-10-15T16:04:11;0.20;;;0.20;;
34783;SDS011;20998;51.388;7.032;2022-10-15T16:06:37;0.40;;;0.40;;
34783;SDS011;20998;51.388;7.032;2022-10-15T16:09:04;0.27;;;0.27;;
34783;SDS011;20998;51.388;7.032;2022-10-15T16:11:30;0.40;;;0.30;;
34783;SDS011;20998;51.388;7.032;2022-10-15T16:13:56;0.30;;;0.30;;
34783;SDS011;20998;51.388;7.032;2022-10-15T16:16:22;0.20;;;0.20;;
34783;SDS011;20998;51.388;7.032;2022-10-15T16:18:49;0.20;;;0.20;;
34783;SDS011;20998;51.388;7.032;2022-10-15T16:21:21;0.37;;;0.37;;
34783;SDS011;20998;51.388;7.032;2022-10-15T16:23:47;0.20;;;0.20;;
34783;SDS011;20998;51.388;7.032;2022-10-15T16:26:13;0.20;;;0.20;;
34783;SDS011;20998;51.388;7.032;2022-10-15T16:28:39;0.30;;;0.30;;
34783;SDS011;20998;51.388;7.032;2022-10-15T16:31:22;0.50;;;0.50;;
34783;SDS011;20998;51.388;7.032;2022-10-15T16:33:48;0.50;;;0.50;;
34783;SDS011;20998;51.388;7.032;2022-10-15T16:36:14;0.30;;;0.30;;
34783;SDS011;20998;51.388;7.032;2022-10-15T16:38:41;0.37;;;0.37;;
34783;SDS011;20998;51.388;7.032;2022-10-15T16:41:08;0.77;;;0.77;;
34783;SDS011;20998;51.388;7.032;2022-10-15T16:43:34;0.37;;;0.37;;
34783;SDS011;20998;51.388;7.032;2022-10-15T16:46:01;0.57;;;0.57;;